createdAt,value
2022-09-28T00:02:13.792Z,3.13
2022-09-28T00:04:40.489Z,2.37
2022-09-28T00:07:07.191Z,2.33
2022-09-28T00:09:33.805Z,2.00
2022-09-28T00:12:00.546Z,1.70
2022-09-28T00:14:27.680Z,3.83
2022-09-28T00:16:54.558Z,2.00
2022-09-28T00:19:21.161Z,2.27
2022-09-28T00:21:48.056Z,2.40
2022-09-28T00:24:18.980Z,2.17
2022-09-28T00:26:52.576Z,2.83
2022-09-28T00:29:20.456Z,2.50
2022-09-28T00:31:47.270Z,2.20
2022-09-28T00:34:14.186Z,2.10
2022-09-28T00:36:42.816Z,1.73
2022-09-28T00:39:09.595Z,2.10
2022-09-28T00:41:36.231Z,2.20
2022-09-28T00:44:21.540Z,2.47
2022-09-28T00:46:51.261Z,2.97
2022-09-28T00:49:18.136Z,2.20
2022-09-28T00:51:44.865Z,1.80
2022-09-28T00:54:11.578Z,1.90
2022-09-28T00:56:38.541Z,1.87
2022-09-28T00:59:05.179Z,2.23
2022-09-28T01:01:31.933Z,2.00
2022-09-28T01:03:59.023Z,2.50
2022-09-28T01:06:27.688Z,2.30
2022-09-28T01:08:55.717Z,2.17
2022-09-28T01:11:22.877Z,3.67
2022-09-28T01:13:49.715Z,1.90
2022-09-28T01:16:23.772Z,1.60
2022-09-28T01:18:56.124Z,2.20
2022-09-28T01:21:23.211Z,2.30
2022-09-28T01:23:55.863Z,4.17
2022-09-28T01:26:25.482Z,3.57
2022-09-28T01:28:54.158Z,2.83
2022-09-28T01:31:20.844Z,2.37
2022-09-28T01:33:53.144Z,2.80
2022-09-28T01:36:21.665Z,3.33
2022-09-28T01:38:49.173Z,2.43
2022-09-28T01:44:03.687Z,2.10
2022-09-28T01:46:37.571Z,3.00
2022-09-28T01:49:18.672Z,2.10
2022-09-28T01:55:23.042Z,4.20
2022-09-28T01:58:19.870Z,3.07
2022-09-28T02:00:48.197Z,8.23
2022-09-28T02:03:20.783Z,2.97
2022-09-28T02:05:58.947Z,2.33
2022-09-28T02:08:29.571Z,2.53
2022-09-28T02:11:08.932Z,3.00
2022-09-28T02:13:37.091Z,2.27
2022-09-28T02:16:03.958Z,3.57
2022-09-28T02:18:30.731Z,3.20
2022-09-28T02:21:07.568Z,3.80
2022-09-28T02:23:35.310Z,3.00
2022-09-28T02:26:03.471Z,3.83
2022-09-28T02:28:30.845Z,4.87
2022-09-28T02:30:57.513Z,4.03
2022-09-28T02:33:24.405Z,3.57
2022-09-28T02:35:51.066Z,3.00
2022-09-28T02:38:19.650Z,4.37
2022-09-28T02:40:50.970Z,3.47
2022-09-28T02:43:24.795Z,2.73
2022-09-28T02:45:55.806Z,2.83
2022-09-28T02:48:43.098Z,3.73
2022-09-28T02:54:12.652Z,3.27
2022-09-28T02:56:42.282Z,5.43
2022-09-28T02:59:13.087Z,2.77
2022-09-28T03:02:13.430Z,3.30
2022-09-28T03:04:56.589Z,4.07
2022-09-28T03:07:29.360Z,2.97
2022-09-28T03:09:56.102Z,4.50
2022-09-28T03:12:23.611Z,3.83
2022-09-28T03:17:56.135Z,3.53
2022-09-28T03:20:22.794Z,2.77
2022-09-28T03:23:12.283Z,2.63
2022-09-28T03:25:36.234Z,4.63
2022-09-28T03:28:03.054Z,4.33
2022-09-28T03:30:34.510Z,7.43
2022-09-28T03:33:02.555Z,3.23
2022-09-28T03:35:31.732Z,2.10
2022-09-28T03:37:58.469Z,3.23
2022-09-28T03:40:27.676Z,3.77
2022-09-28T03:42:54.485Z,4.30
2022-09-28T03:45:21.273Z,4.03
2022-09-28T03:47:50.242Z,3.43
2022-09-28T03:50:18.762Z,3.73
2022-09-28T03:52:45.482Z,6.20
2022-09-28T03:55:12.217Z,3.97
2022-09-28T03:57:39.091Z,5.87
2022-09-28T04:00:06.168Z,4.47
2022-09-28T04:02:40.235Z,4.07
2022-09-28T04:05:07.529Z,4.60
2022-09-28T04:07:34.229Z,4.37
2022-09-28T04:10:01.009Z,3.90
2022-09-28T04:12:27.716Z,4.27
2022-09-28T04:14:54.503Z,5.47
2022-09-28T04:17:21.186Z,3.60
2022-09-28T04:19:48.307Z,4.67
2022-09-28T04:22:47.470Z,4.43
2022-09-28T04:25:14.344Z,10.30
2022-09-28T04:27:59.396Z,6.40
2022-09-28T04:30:26.528Z,5.60
2022-09-28T04:32:53.156Z,4.30
2022-09-28T04:35:20.148Z,4.93
2022-09-28T04:37:47.162Z,4.57
2022-09-28T04:40:14.019Z,4.50
2022-09-28T04:42:41.356Z,5.13
2022-09-28T04:45:08.500Z,5.83
2022-09-28T04:47:38.799Z,4.50
2022-09-28T04:50:24.058Z,4.70
2022-09-28T04:53:06.183Z,4.93
2022-09-28T04:55:32.889Z,5.60
2022-09-28T04:58:03.863Z,6.73
2022-09-28T05:03:38.330Z,8.10
2022-09-28T05:06:37.333Z,7.80
2022-09-28T05:09:06.700Z,8.73
2022-09-28T05:11:33.844Z,6.83
2022-09-28T05:14:01.085Z,7.10
2022-09-28T05:16:31.086Z,7.57
2022-09-28T05:19:21.020Z,7.07
2022-09-28T05:21:49.608Z,6.23
2022-09-28T05:24:16.435Z,6.87
2022-09-28T05:26:49.116Z,6.03
2022-09-28T05:29:16.515Z,6.43
2022-09-28T05:31:49.115Z,7.77
2022-09-28T05:34:48.281Z,6.73
2022-09-28T05:37:21.522Z,6.43
2022-09-28T05:39:48.366Z,6.60
2022-09-28T05:42:15.087Z,6.93
2022-09-28T05:44:42.747Z,7.13
2022-09-28T05:47:11.629Z,6.97
2022-09-28T05:49:39.124Z,6.47
2022-09-28T05:52:05.783Z,7.07
2022-09-28T05:54:36.430Z,7.77
2022-09-28T05:57:04.980Z,6.93
2022-09-28T05:59:31.628Z,6.63
2022-09-28T06:01:58.415Z,6.37
2022-09-28T06:04:25.883Z,6.73
2022-09-28T06:06:52.627Z,7.10
2022-09-28T06:09:21.681Z,6.93
2022-09-28T06:12:18.347Z,7.80
2022-09-28T06:17:35.022Z,8.17
2022-09-28T06:20:43.161Z,9.03
2022-09-28T06:23:14.830Z,8.00
2022-09-28T06:25:41.825Z,8.43
2022-09-28T06:30:56.823Z,8.07
2022-09-28T06:33:25.720Z,8.53
2022-09-28T06:35:52.899Z,7.07
2022-09-28T06:38:19.612Z,7.80
2022-09-28T06:40:48.223Z,7.40
2022-09-28T06:43:15.361Z,10.43
2022-09-28T06:46:01.684Z,8.83
2022-09-28T06:48:57.969Z,8.03
2022-09-28T06:55:10.898Z,7.23
2022-09-28T07:00:33.902Z,7.17
2022-09-28T07:06:18.522Z,7.67
2022-09-28T07:12:13.758Z,7.17
2022-09-28T07:14:56.222Z,7.70
2022-09-28T07:17:24.490Z,6.07
2022-09-28T07:19:55.873Z,7.47
2022-09-28T07:22:35.565Z,6.70
2022-09-28T07:25:07.430Z,6.53
2022-09-28T07:27:39.657Z,7.10
2022-09-28T07:30:15.690Z,7.00
2022-09-28T07:33:17.969Z,7.07
2022-09-28T07:35:54.039Z,8.07
2022-09-28T07:38:23.446Z,8.07
2022-09-28T07:41:08.733Z,7.67
2022-09-28T07:43:39.792Z,8.83
2022-09-28T07:46:12.324Z,7.33
2022-09-28T07:51:38.312Z,6.10
2022-09-28T07:54:39.483Z,6.33
2022-09-28T07:57:24.799Z,6.53
2022-09-28T08:03:00.298Z,5.73
2022-09-28T08:05:31.392Z,5.47
2022-09-28T08:07:59.739Z,7.93
2022-09-28T08:10:28.581Z,8.73
2022-09-28T08:13:16.496Z,6.43
2022-09-28T08:16:02.318Z,6.50
2022-09-28T08:18:40.569Z,6.97
2022-09-28T08:21:26.196Z,6.90
2022-09-28T08:26:38.608Z,8.97
2022-09-28T08:29:05.630Z,7.13
2022-09-28T08:31:50.777Z,7.27
2022-09-28T08:34:37.981Z,9.07
2022-09-28T08:37:27.541Z,8.57
2022-09-28T08:43:19.866Z,8.00
2022-09-28T08:49:30.284Z,7.60
2022-09-28T08:55:37.061Z,8.57
2022-09-28T08:58:08.944Z,10.47
2022-09-28T09:00:38.840Z,10.43
2022-09-28T09:03:07.607Z,9.20
2022-09-28T09:05:39.805Z,9.63
2022-09-28T09:08:19.000Z,7.33
2022-09-28T09:10:47.784Z,7.73
2022-09-28T09:13:18.898Z,7.27
2022-09-28T09:15:54.161Z,7.87
2022-09-28T09:18:42.169Z,8.47
2022-09-28T09:21:39.228Z,7.30
2022-09-28T09:24:27.144Z,7.73
2022-09-28T09:27:02.714Z,7.47
2022-09-28T09:29:36.494Z,7.57
2022-09-28T09:32:36.640Z,8.87
2022-09-28T09:35:05.582Z,7.70
2022-09-28T09:37:46.969Z,9.27
2022-09-28T09:40:43.080Z,8.70
2022-09-28T09:43:34.313Z,7.70
2022-09-28T09:46:39.519Z,9.87
2022-09-28T09:49:20.640Z,11.07
2022-09-28T09:52:01.112Z,9.27
2022-09-28T09:54:34.345Z,9.90
2022-09-28T09:57:07.849Z,9.30
2022-09-28T10:00:13.470Z,9.33
2022-09-28T10:02:54.463Z,9.37
2022-09-28T10:05:33.851Z,10.47
2022-09-28T10:08:03.836Z,9.33
2022-09-28T10:10:35.213Z,8.10
2022-09-28T10:13:11.006Z,8.27
2022-09-28T10:15:39.045Z,7.20
2022-09-28T10:18:14.526Z,7.93
2022-09-28T10:21:00.090Z,10.03
2022-09-28T10:23:34.498Z,7.70
2022-09-28T10:26:03.397Z,7.63
2022-09-28T10:28:33.263Z,7.73
2022-09-28T10:31:01.802Z,6.00
2022-09-28T10:33:33.297Z,6.97
2022-09-28T10:36:00.556Z,7.20
2022-09-28T10:38:27.622Z,6.83
2022-09-28T10:41:10.536Z,7.37
2022-09-28T10:44:12.983Z,7.67
2022-09-28T10:47:03.344Z,8.10
2022-09-28T10:49:44.420Z,7.90
2022-09-28T10:52:36.545Z,7.80
2022-09-28T10:55:05.960Z,22.97
2022-09-28T10:57:36.673Z,15.57
2022-09-28T11:00:14.102Z,11.77
2022-09-28T11:02:50.999Z,8.10
2022-09-28T11:05:22.073Z,7.57
2022-09-28T11:07:51.898Z,7.10
2022-09-28T11:10:32.912Z,10.00
2022-09-28T11:13:08.938Z,7.40
2022-09-28T11:15:36.320Z,8.33
2022-09-28T11:18:24.080Z,6.67
2022-09-28T11:20:51.003Z,5.33
2022-09-28T11:23:36.856Z,9.37
2022-09-28T11:26:21.694Z,5.10
2022-09-28T11:28:52.690Z,5.00
2022-09-28T11:31:29.987Z,5.40
2022-09-28T11:34:06.994Z,5.13
2022-09-28T11:37:01.719Z,5.10
2022-09-28T11:39:29.570Z,4.90
2022-09-28T11:42:02.325Z,5.43
2022-09-28T11:44:39.973Z,4.23
2022-09-28T11:47:15.637Z,5.17
2022-09-28T11:49:47.282Z,4.30
2022-09-28T11:52:38.701Z,5.20
2022-09-28T11:55:06.720Z,6.30
2022-09-28T11:57:38.281Z,4.43
2022-09-28T12:00:15.627Z,4.40
2022-09-28T12:02:50.852Z,4.33
2022-09-28T12:05:34.348Z,3.13
2022-09-28T12:08:02.640Z,2.67
2022-09-28T12:11:07.106Z,2.43
2022-09-28T12:13:57.539Z,2.83
2022-09-28T12:19:19.420Z,2.73
2022-09-28T12:21:51.284Z,1.83
2022-09-28T12:24:20.793Z,2.57
2022-09-28T12:26:49.146Z,2.40
2022-09-28T12:29:18.334Z,1.70
2022-09-28T12:31:57.081Z,2.10
2022-09-28T12:34:23.880Z,2.83
2022-09-28T12:36:50.571Z,2.60
2022-09-28T12:42:08.255Z,2.03
2022-09-28T12:44:44.285Z,1.60
2022-09-28T12:47:22.016Z,2.40
2022-09-28T12:52:38.655Z,1.50
2022-09-28T12:55:12.616Z,1.60
2022-09-28T12:57:58.298Z,3.33
2022-09-28T13:00:26.326Z,1.77
2022-09-28T13:03:07.231Z,2.67
2022-09-28T13:05:34.559Z,6.53
2022-09-28T13:08:27.717Z,1.30
2022-09-28T13:11:04.281Z,5.67
2022-09-28T13:13:34.592Z,1.37
2022-09-28T13:16:01.275Z,2.40
2022-09-28T13:18:29.934Z,2.87
2022-09-28T13:21:08.744Z,3.33
2022-09-28T13:23:42.541Z,1.77
2022-09-28T13:26:14.017Z,2.87
2022-09-28T13:28:41.317Z,1.80
2022-09-28T13:31:08.068Z,1.80
2022-09-28T13:33:36.847Z,2.40
2022-09-28T13:36:06.070Z,5.57
2022-09-28T13:38:49.875Z,1.73
2022-09-28T13:41:17.246Z,3.63
2022-09-28T13:43:48.848Z,1.07
2022-09-28T13:46:15.671Z,2.23
2022-09-28T13:48:48.592Z,1.90
2022-09-28T13:51:22.084Z,2.13
2022-09-28T13:53:58.829Z,1.87
2022-09-28T13:56:38.277Z,1.97
2022-09-28T13:59:05.323Z,2.10
2022-09-28T14:04:25.217Z,1.57
2022-09-28T14:07:10.838Z,3.17
2022-09-28T14:09:40.279Z,2.50
2022-09-28T14:12:26.384Z,2.27
2022-09-28T14:14:53.754Z,2.40
2022-09-28T14:17:30.484Z,3.40
2022-09-28T14:20:01.057Z,3.07
2022-09-28T14:22:33.775Z,3.07
2022-09-28T14:25:00.585Z,3.13
2022-09-28T14:27:46.058Z,2.90
2022-09-28T14:30:12.915Z,3.40
2022-09-28T14:32:40.366Z,2.57
2022-09-28T14:35:07.882Z,2.50
2022-09-28T14:37:55.383Z,3.77
2022-09-28T14:40:49.719Z,4.50
2022-09-28T14:43:29.158Z,2.43
2022-09-28T14:46:10.997Z,4.93
2022-09-28T14:48:49.705Z,6.67
2022-09-28T14:51:33.122Z,2.90
2022-09-28T14:54:01.006Z,3.30
2022-09-28T14:56:38.460Z,3.17
2022-09-28T14:59:05.185Z,3.37
2022-09-28T15:01:32.842Z,3.93
2022-09-28T15:04:01.622Z,2.50
2022-09-28T15:06:28.825Z,3.27
2022-09-28T15:08:55.556Z,3.00
2022-09-28T15:11:23.620Z,2.70
2022-09-28T15:13:53.338Z,2.70
2022-09-28T15:16:22.748Z,2.40
2022-09-28T15:19:08.097Z,2.90
2022-09-28T15:21:36.090Z,4.70
2022-09-28T15:24:02.778Z,3.63
2022-09-28T15:26:31.440Z,3.53
2022-09-28T15:28:58.196Z,2.40
2022-09-28T15:31:26.527Z,1.90
2022-09-28T15:34:12.208Z,2.53
2022-09-28T15:36:39.924Z,4.93
2022-09-28T15:39:16.870Z,3.23
2022-09-28T15:41:44.137Z,3.40
2022-09-28T15:44:10.782Z,5.17
2022-09-28T15:46:38.514Z,3.10
2022-09-28T15:49:05.906Z,2.57
2022-09-28T15:51:33.174Z,5.73
2022-09-28T15:53:59.941Z,5.10
2022-09-28T15:56:26.785Z,4.07
2022-09-28T15:59:08.708Z,6.93
2022-09-28T16:01:39.758Z,4.80
2022-09-28T16:04:25.119Z,4.03
2022-09-28T16:07:10.379Z,3.63
2022-09-28T16:09:58.515Z,5.03
2022-09-28T16:12:26.262Z,3.83
2022-09-28T16:14:52.900Z,4.30
2022-09-28T16:17:22.661Z,6.07
2022-09-28T16:19:49.486Z,6.93
2022-09-28T16:22:20.449Z,6.90
2022-09-28T16:24:53.577Z,6.27
2022-09-28T16:27:25.074Z,4.77
2022-09-28T16:32:56.467Z,7.63
2022-09-28T16:35:25.508Z,7.77
2022-09-28T16:38:15.237Z,9.43
2022-09-28T16:40:43.202Z,13.53
2022-09-28T16:43:15.792Z,8.87
2022-09-28T16:45:42.648Z,8.40
2022-09-28T16:48:11.157Z,11.23
2022-09-28T16:50:38.298Z,8.37
2022-09-28T16:53:49.838Z,10.33
2022-09-28T16:56:16.768Z,15.73
2022-09-28T16:58:44.280Z,14.27
2022-09-28T17:01:12.150Z,14.47
2022-09-28T17:03:42.389Z,12.60
2022-09-28T17:06:09.341Z,11.87
2022-09-28T17:08:36.296Z,9.77
2022-09-28T17:11:15.886Z,9.60
2022-09-28T17:13:45.278Z,8.30
2022-09-28T17:16:14.487Z,11.10
2022-09-28T17:18:41.535Z,9.40
2022-09-28T17:21:15.983Z,10.50
2022-09-28T17:23:43.223Z,9.20
2022-09-28T17:26:15.291Z,14.23
2022-09-28T17:28:42.067Z,10.40
2022-09-28T17:31:10.239Z,14.93
2022-09-28T17:33:37.129Z,10.47
2022-09-28T17:36:05.292Z,17.60
2022-09-28T17:38:32.543Z,20.07
2022-09-28T17:40:59.320Z,15.43
2022-09-28T17:43:26.224Z,17.60
2022-09-28T17:45:52.991Z,18.27
2022-09-28T17:48:22.976Z,18.00
2022-09-28T17:50:51.269Z,20.83
2022-09-28T17:53:17.930Z,22.07
2022-09-28T17:55:44.830Z,19.43
2022-09-28T17:58:21.149Z,18.33
2022-09-28T18:03:33.322Z,18.27
2022-09-28T18:06:06.947Z,20.27
2022-09-28T18:08:33.702Z,19.13
2022-09-28T18:11:01.674Z,20.43
2022-09-28T18:13:28.396Z,19.87
2022-09-28T18:15:55.343Z,20.77
2022-09-28T18:18:22.768Z,22.27
2022-09-28T18:23:36.097Z,57.83
2022-09-28T18:26:03.824Z,179.20
2022-09-28T18:28:31.252Z,158.37
2022-09-28T18:30:57.985Z,101.63
2022-09-28T18:36:09.040Z,60.30
2022-09-28T18:38:36.146Z,61.27
2022-09-28T18:41:29.379Z,54.57
2022-09-28T18:44:00.827Z,48.80
2022-09-28T18:46:28.216Z,36.33
2022-09-28T18:48:57.110Z,39.77
2022-09-28T18:51:24.512Z,30.87
2022-09-28T18:53:53.397Z,97.90
2022-09-28T18:56:21.663Z,62.87
2022-09-28T18:58:48.429Z,24.83
2022-09-28T19:01:33.830Z,42.03
2022-09-28T19:04:02.312Z,26.53
2022-09-28T19:06:28.991Z,30.03
2022-09-28T19:08:56.053Z,25.93
2022-09-28T19:11:22.829Z,44.33
2022-09-28T19:13:49.550Z,29.80
2022-09-28T19:16:18.159Z,33.00
2022-09-28T19:18:45.200Z,25.50
2022-09-28T19:21:12.642Z,69.17
2022-09-28T19:23:39.432Z,29.93
2022-09-28T19:26:07.015Z,32.27
2022-09-28T19:28:34.137Z,26.00
2022-09-28T19:33:33.697Z,23.50
2022-09-28T19:36:01.320Z,25.50
2022-09-28T19:38:31.634Z,23.13
2022-09-28T19:40:58.867Z,25.87
2022-09-28T19:43:25.996Z,25.73
2022-09-28T19:45:53.481Z,31.90
2022-09-28T19:48:22.030Z,31.47
2022-09-28T19:51:15.756Z,31.93
2022-09-28T19:53:42.628Z,40.70
2022-09-28T19:56:11.179Z,40.97
2022-09-28T19:58:40.759Z,39.07
2022-09-28T20:01:08.121Z,37.67
2022-09-28T20:03:35.089Z,35.73
2022-09-28T20:06:01.890Z,39.30
2022-09-28T20:08:30.186Z,39.93
2022-09-28T20:10:57.597Z,44.30
2022-09-28T20:13:24.728Z,42.83
2022-09-28T20:15:51.882Z,42.10
2022-09-28T20:18:19.151Z,38.97
2022-09-28T20:20:49.008Z,46.40
2022-09-28T20:23:16.467Z,48.10
2022-09-28T20:25:43.115Z,37.77
2022-09-28T20:28:09.820Z,46.40
2022-09-28T20:30:37.539Z,54.00
2022-09-28T20:33:07.499Z,65.53
2022-09-28T20:35:34.347Z,51.70
2022-09-28T20:38:08.156Z,53.50
2022-09-28T20:40:35.862Z,44.13
2022-09-28T20:43:02.667Z,44.67
2022-09-28T20:48:13.408Z,43.17
2022-09-28T20:53:26.115Z,51.50
2022-09-28T20:55:58.799Z,48.80
2022-09-28T20:58:25.752Z,54.73
2022-09-28T21:00:52.427Z,47.67
2022-09-28T21:03:19.111Z,49.93
2022-09-28T21:05:46.497Z,38.27
2022-09-28T21:08:14.124Z,36.73
2022-09-28T21:10:43.570Z,33.37
2022-09-28T21:13:11.234Z,30.63
2022-09-28T21:15:38.000Z,30.10
2022-09-28T21:18:04.791Z,32.63
2022-09-28T21:20:31.458Z,26.67
2022-09-28T21:22:58.599Z,30.87
2022-09-28T21:28:09.712Z,29.93
2022-09-28T21:33:20.753Z,29.53
2022-09-28T21:38:31.918Z,32.07
2022-09-28T21:40:59.311Z,31.33
2022-09-28T21:43:26.588Z,36.77
2022-09-28T21:45:53.549Z,32.13
2022-09-28T21:48:21.380Z,37.10
2022-09-28T21:50:57.303Z,36.93
2022-09-28T21:53:27.559Z,40.50
2022-09-28T21:55:54.852Z,37.23
2022-09-28T21:58:24.931Z,35.67
2022-09-28T22:00:58.257Z,33.63
2022-09-28T22:03:25.830Z,37.63
2022-09-28T22:05:52.506Z,30.00
2022-09-28T22:08:19.519Z,29.00
2022-09-28T22:10:46.382Z,35.90
2022-09-28T22:13:13.038Z,35.27
2022-09-28T22:15:39.693Z,30.77
2022-09-28T22:18:06.479Z,32.23
2022-09-28T22:20:33.187Z,38.77
2022-09-28T22:22:59.924Z,33.00
2022-09-28T22:25:26.572Z,43.40
2022-09-28T22:27:53.276Z,41.23
2022-09-28T22:30:19.937Z,34.57
2022-09-28T22:32:46.659Z,29.20
2022-09-28T22:35:13.322Z,36.40
2022-09-28T22:37:40.008Z,33.67
2022-09-28T22:40:06.874Z,31.87
2022-09-28T22:42:33.663Z,37.77
2022-09-28T22:45:00.639Z,40.00
2022-09-28T22:47:27.742Z,44.30
2022-09-28T22:49:54.446Z,35.83
2022-09-28T22:52:22.238Z,36.03
2022-09-28T22:54:51.267Z,33.93
2022-09-28T22:57:18.366Z,35.60
2022-09-28T22:59:45.093Z,38.97
2022-09-28T23:02:11.841Z,46.67
2022-09-28T23:04:38.637Z,42.43
2022-09-28T23:07:05.330Z,40.27
2022-09-28T23:09:31.915Z,37.60
2022-09-28T23:11:58.568Z,60.30
2022-09-28T23:14:25.283Z,63.73
2022-09-28T23:16:51.933Z,50.43
2022-09-28T23:19:18.609Z,38.57
2022-09-28T23:21:46.271Z,39.73
2022-09-28T23:24:12.990Z,45.07
2022-09-28T23:26:39.714Z,38.80
2022-09-28T23:29:06.408Z,35.47
2022-09-28T23:31:33.306Z,34.63
2022-09-28T23:34:00.757Z,29.47
2022-09-28T23:36:27.462Z,27.77
2022-09-28T23:38:54.075Z,28.83
2022-09-28T23:41:20.764Z,27.93
2022-09-28T23:43:47.444Z,32.87
2022-09-28T23:46:18.419Z,20.17
2022-09-28T23:48:47.529Z,23.00
2022-09-28T23:51:14.143Z,19.90
2022-09-28T23:53:40.780Z,19.37
2022-09-28T23:56:07.403Z,18.33
2022-09-28T23:58:34.110Z,20.73
